Time;durP1;ratioP1;P1;durP2;ratioP2;P2;SDS_P1;SDS_P2;PMS_P1;PMS_P2;Temp;Humidity;BMP_temperature;BMP_pressure;BME280_temperature;BME280_humidity;BME280_pressure;Samples;Min_cycle;Max_cycle;Signal;HPM_P1;HPM_P2
2023/06/11 00:01:57;;;;;;;8.63;6.12;;;;;;;26.07;47.20;99214.63;4499137;31;33590;-73
2023/06/11 00:04:25;;;;;;;11.02;7.12;;;;;;;26.07;47.20;99219.28;4499340;31;34190;-73
2023/06/11 00:06:54;;;;;;;10.10;7.00;;;;;;;26.06;47.17;99218.44;4499198;31;34473;-73
2023/06/11 00:09:24;;;;;;;10.27;6.97;;;;;;;26.07;47.14;99222.84;4484858;31;33513;-73
2023/06/11 00:11:53;;;;;;;7.62;6.37;;;;;;;26.06;47.16;99223.91;4499242;31;34661;-73
2023/06/11 00:14:22;;;;;;;9.00;6.95;;;;;;;26.06;47.13;99221.16;4499237;31;33648;-73
2023/06/11 00:16:50;;;;;;;11.35;6.45;;;;;;;26.06;47.14;99215.69;4484903;31;33988;-73
2023/06/11 00:19:20;;;;;;;8.25;6.78;;;;;;;26.05;47.17;99226.91;4499420;31;33549;-74
2023/06/11 00:21:48;;;;;;;9.52;7.12;;;;;;;26.05;47.16;99229.63;4498960;31;33948;-73
2023/06/11 00:24:16;;;;;;;8.93;7.47;;;;;;;26.06;47.16;99229.38;4498962;31;34776;-72
2023/06/11 00:26:45;;;;;;;10.07;6.95;;;;;;;26.05;47.16;99230.44;4498165;31;34638;-73
2023/06/11 00:29:12;;;;;;;8.88;6.97;;;;;;;26.06;47.16;99234.81;4498772;31;34118;-74
2023/06/11 00:31:40;;;;;;;9.35;6.95;;;;;;;26.06;47.14;99234.81;4498824;31;33602;-73
2023/06/11 00:34:09;;;;;;;11.57;7.15;;;;;;;26.06;47.15;99228.53;4499223;31;34183;-73
2023/06/11 00:36:40;;;;;;;9.02;6.97;;;;;;;26.06;47.14;99234.81;4498663;31;34642;-72
2023/06/11 00:39:09;;;;;;;8.32;6.90;;;;;;;26.06;47.22;99229.38;4498938;31;33609;-74
2023/06/11 00:41:38;;;;;;;11.43;7.35;;;;;;;26.06;47.20;99243.03;4484371;31;34779;-73
2023/06/11 00:44:06;;;;;;;11.55;7.32;;;;;;;26.07;47.20;99238.41;4498390;31;33897;-74
2023/06/11 00:46:37;;;;;;;9.27;7.22;;;;;;;26.07;47.19;99233.78;4500143;31;33754;-74
2023/06/11 00:49:05;;;;;;;10.00;7.12;;;;;;;26.08;47.19;99240.06;4500968;31;33455;-73
2023/06/11 00:51:33;;;;;;;9.98;7.60;;;;;;;26.08;47.15;99237.31;4500952;31;34800;-74
2023/06/11 00:54:01;;;;;;;9.68;7.40;;;;;;;26.07;47.17;99239.25;4473918;31;34660;-73
2023/06/11 00:56:28;;;;;;;8.68;7.00;;;;;;;26.07;47.16;99233.78;4500891;31;33635;-73
2023/06/11 00:58:59;;;;;;;7.50;6.70;;;;;;;26.07;47.15;99239.25;4501034;31;34118;-71
2023/06/11 01:01:29;;;;;;;11.77;6.97;;;;;;;26.07;47.17;99232.94;4500982;31;34031;-74
2023/06/11 01:04:00;;;;;;;8.13;6.40;;;;;;;26.06;47.23;99234.81;4500783;31;33857;-73
2023/06/11 01:06:28;;;;;;;8.25;6.85;;;;;;;26.07;47.20;99239.25;4486929;31;34850;-74
2023/06/11 01:08:57;;;;;;;8.63;7.30;;;;;;;26.06;47.21;99243.03;4486601;31;34151;-74
2023/06/11 01:11:27;;;;;;;11.18;7.62;;;;;;;26.06;47.22;99237.56;4501108;31;33624;-65
2023/06/11 01:13:55;;;;;;;9.57;7.57;;;;;;;26.06;47.22;99236.75;4501105;31;34814;-64
2023/06/11 01:16:53;;;;;;;9.57;6.95;;;;;;;26.07;47.22;99235.69;4500898;31;33987;-65
2023/06/11 01:19:43;;;;;;;10.18;7.70;;;;;;;26.07;47.17;99232.94;4473258;31;34318;-65
2023/06/11 01:22:15;;;;;;;9.25;7.40;;;;;;;26.03;47.18;99229.91;4500661;31;34526;-64
2023/06/11 01:25:00;;;;;;;9.07;7.10;;;;;;;26.03;47.19;99235.38;4474115;31;33903;-66
2023/06/11 01:27:40;;;;;;;10.82;7.70;;;;;;;26.03;47.18;99227.16;4487617;31;33713;-63
2023/06/11 01:30:09;;;;;;;12.05;8.15;;;;;;;26.01;47.21;99223.84;4474394;31;33594;-64
2023/06/11 01:32:37;;;;;;;9.80;7.28;;;;;;;26.01;47.18;99233.97;4486750;31;34626;-65
2023/06/11 01:35:06;;;;;;;8.00;7.15;;;;;;;26.00;47.17;99232.31;4486912;31;34840;-64
2023/06/11 01:37:35;;;;;;;8.37;6.77;;;;;;;26.00;47.13;99233.13;4500724;31;34489;-63
2023/06/11 01:40:04;;;;;;;10.60;7.50;;;;;;;25.99;47.09;99234.22;4500675;31;33548;-64
2023/06/11 01:42:31;;;;;;;9.73;6.87;;;;;;;25.99;47.06;99236.97;4500888;31;34840;-65
2023/06/11 01:44:59;;;;;;;9.73;7.30;;;;;;;25.97;46.98;99239.09;4500703;31;33973;-71
2023/06/11 01:47:27;;;;;;;8.98;7.10;;;;;;;25.95;46.93;99241.28;4500559;31;34677;-64
2023/06/11 01:49:55;;;;;;;9.48;7.32;;;;;;;25.94;46.86;99242.38;4500748;31;33044;-64
2023/06/11 01:52:24;;;;;;;8.68;7.62;;;;;;;25.95;46.83;99244.00;4500395;31;33555;-67
2023/06/11 01:54:51;;;;;;;11.07;7.12;;;;;;;25.92;46.71;99245.34;4500671;31;34912;-65
2023/06/11 01:57:19;;;;;;;7.93;7.07;;;;;;;25.91;46.68;99246.44;4500362;31;33936;-64
2023/06/11 01:59:47;;;;;;;9.32;6.60;;;;;;;25.91;46.69;99248.34;4500687;31;33447;-65
2023/06/11 02:02:15;;;;;;;10.07;6.82;;;;;;;25.91;46.72;99246.44;4500455;31;33619;-66
2023/06/11 02:04:43;;;;;;;8.73;6.53;;;;;;;25.89;46.56;99247.78;4500473;31;33837;-64
2023/06/11 02:07:11;;;;;;;8.55;6.78;;;;;;;25.88;46.50;99257.91;4500338;31;33603;-67
2023/06/11 02:09:38;;;;;;;8.85;6.95;;;;;;;25.87;46.43;99253.50;4500576;31;34061;-66
2023/06/11 02:12:07;;;;;;;8.57;6.87;;;;;;;25.86;46.44;99251.03;4500519;31;34894;-63
2023/06/11 02:14:34;;;;;;;10.48;6.78;;;;;;;25.87;46.30;99249.94;4500110;31;34775;-64
2023/06/11 02:17:02;;;;;;;12.48;6.62;;;;;;;25.86;46.29;99251.03;4500690;31;33834;-64
2023/06/11 02:19:33;;;;;;;9.57;6.37;;;;;;;25.84;46.32;99256.75;4500761;31;34413;-66
2023/06/11 02:22:01;;;;;;;8.95;6.60;;;;;;;25.84;46.27;99255.94;4500307;31;33583;-67
2023/06/11 02:24:28;;;;;;;7.68;6.53;;;;;;;25.83;46.25;99248.78;4500384;31;33920;-69
2023/06/11 02:26:56;;;;;;;9.93;6.22;;;;;;;25.84;46.14;99258.66;4500359;31;34371;-63
2023/06/11 02:29:23;;;;;;;8.18;6.37;;;;;;;25.83;46.13;99259.72;4484674;31;34425;-66
2023/06/11 02:31:51;;;;;;;8.27;6.47;;;;;;;25.83;46.10;99251.53;4495578;31;34074;-64
2023/06/11 02:34:19;;;;;;;12.82;6.72;;;;;;;25.82;46.09;99255.34;4500343;31;33998;-64
2023/06/11 02:36:46;;;;;;;9.65;6.05;;;;;;;25.81;46.10;99251.78;4500362;31;33533;-66
2023/06/11 02:39:14;;;;;;;8.45;6.22;;;;;;;25.82;46.12;99247.16;4500358;31;33620;-64
2023/06/11 02:41:42;;;;;;;8.57;6.20;;;;;;;25.81;46.07;99246.31;4500235;31;34652;-63
2023/06/11 02:44:10;;;;;;;9.52;6.35;;;;;;;25.80;46.09;99249.31;4485719;31;34617;-65
2023/06/11 02:46:37;;;;;;;7.53;5.78;;;;;;;25.80;46.02;99252.06;4485926;31;34261;-64
2023/06/11 02:49:05;;;;;;;10.00;6.95;;;;;;;25.79;46.01;99244.94;4500129;31;33640;-66
2023/06/11 02:51:33;;;;;;;9.23;5.95;;;;;;;25.79;45.97;99242.22;4500161;31;34538;-66
2023/06/11 02:54:02;;;;;;;8.77;6.28;;;;;;;25.78;45.82;99248.72;4500255;31;33790;-65
2023/06/11 02:56:29;;;;;;;8.23;5.85;;;;;;;25.77;45.74;99245.19;4499963;31;33628;-64
2023/06/11 02:58:57;;;;;;;7.80;6.00;;;;;;;25.77;45.68;99245.19;4500480;31;33423;-65
2023/06/11 03:01:25;;;;;;;8.35;5.43;;;;;;;25.77;45.73;99249.81;4500358;31;34755;-65
2023/06/11 03:03:52;;;;;;;6.80;5.87;;;;;;;25.77;45.64;99245.19;4499860;31;35231;-64
2023/06/11 03:06:20;;;;;;;6.90;5.45;;;;;;;25.76;45.65;99249.00;4486304;31;33762;-67
2023/06/11 03:08:48;;;;;;;9.52;6.03;;;;;;;25.76;45.65;99253.63;4499217;31;33549;-65
2023/06/11 03:11:16;;;;;;;7.28;5.72;;;;;;;25.74;45.66;99242.94;4499791;31;34669;-64
2023/06/11 03:13:44;;;;;;;9.07;6.00;;;;;;;25.74;45.64;99251.12;4499983;31;34019;-65
2023/06/11 03:16:11;;;;;;;7.50;5.80;;;;;;;25.74;45.63;99248.41;4499905;31;33859;-64
2023/06/11 03:18:39;;;;;;;8.93;5.18;;;;;;;25.73;45.66;99249.47;4500173;31;33115;-64
2023/06/11 03:21:07;;;;;;;8.55;5.95;;;;;;;25.75;45.71;99254.69;4499839;31;34651;-65
2023/06/11 03:23:35;;;;;;;11.57;5.80;;;;;;;25.76;45.77;99250.91;4499827;31;33713;-64
2023/06/11 03:26:03;;;;;;;7.53;5.40;;;;;;;25.75;45.80;99255.53;4499967;31;33675;-65
2023/06/11 03:28:32;;;;;;;6.62;5.55;;;;;;;25.76;45.81;99251.72;4500138;31;33093;-64
2023/06/11 03:30:59;;;;;;;8.38;5.35;;;;;;;25.77;45.80;99249.81;4499761;31;34048;-64
2023/06/11 03:33:27;;;;;;;12.30;5.53;;;;;;;25.77;45.78;99260.75;4485751;31;34663;-66
2023/06/11 03:35:55;;;;;;;8.40;5.70;;;;;;;25.77;45.82;99250.62;4499971;31;34081;-64
2023/06/11 03:38:23;;;;;;;6.90;5.75;;;;;;;25.77;45.80;99258.84;4499929;31;34592;-66
2023/06/11 03:40:51;;;;;;;7.30;5.93;;;;;;;25.78;45.85;99259.66;4499699;31;34636;-63
2023/06/11 03:43:20;;;;;;;7.20;5.32;;;;;;;25.78;45.83;99262.41;4485806;31;34810;-63
2023/06/11 03:45:47;;;;;;;8.32;5.62;;;;;;;25.79;45.79;99258.59;4499758;31;34346;-64
2023/06/11 03:48:15;;;;;;;6.80;5.30;;;;;;;25.78;45.82;99257.75;4499712;31;33029;-66
2023/06/11 03:50:44;;;;;;;8.02;5.47;;;;;;;25.79;45.82;99262.16;4499722;31;33642;-65
2023/06/11 03:53:11;;;;;;;7.25;5.70;;;;;;;25.80;45.79;99257.53;4499816;31;33851;-65
2023/06/11 03:55:39;;;;;;;8.90;6.15;;;;;;;25.80;45.77;99265.72;4499612;31;33908;-64
2023/06/11 03:58:07;;;;;;;7.20;5.32;;;;;;;25.80;45.77;99262.97;4499424;31;33106;-64
2023/06/11 04:00:35;;;;;;;7.43;5.50;;;;;;;25.79;45.82;99267.63;4499626;31;33438;-65
2023/06/11 04:03:03;;;;;;;11.50;6.20;;;;;;;25.80;45.81;99271.19;4499456;31;33581;-66
2023/06/11 04:05:35;;;;;;;7.50;5.43;;;;;;;25.79;45.85;99267.63;4499466;31;33603;-64
2023/06/11 04:08:03;;;;;;;6.45;5.32;;;;;;;25.80;45.89;99266.53;4499455;31;33247;-64
2023/06/11 04:10:31;;;;;;;9.00;4.87;;;;;;;25.80;45.89;99273.91;4485230;31;33868;-64
2023/06/11 04:12:59;;;;;;;7.72;5.07;;;;;;;25.80;45.88;99282.13;4499174;31;34023;-65
2023/06/11 04:15:27;;;;;;;6.97;5.37;;;;;;;25.81;45.85;99278.28;4499090;31;34575;-64
2023/06/11 04:17:55;;;;;;;6.87;5.20;;;;;;;25.81;45.83;99284.59;4499374;31;34082;-64
2023/06/11 04:20:22;;;;;;;7.70;5.72;;;;;;;25.81;45.83;99283.75;4499373;31;33668;-64
2023/06/11 04:22:50;;;;;;;6.68;4.85;;;;;;;25.82;45.80;99277.19;4501402;31;34964;-66
2023/06/11 04:25:18;;;;;;;6.53;5.32;;;;;;;25.82;45.79;99275.28;4501338;31;34096;-64
2023/06/11 04:27:46;;;;;;;9.27;5.87;;;;;;;25.81;45.82;99279.13;4501162;31;34348;-64
2023/06/11 04:30:14;;;;;;;8.48;5.32;;;;;;;25.82;45.82;99279.94;4486853;31;34612;-63
2023/06/11 04:32:43;;;;;;;7.65;5.22;;;;;;;25.82;45.82;99279.94;4487314;31;33947;-65
2023/06/11 04:35:10;;;;;;;7.20;5.25;;;;;;;25.83;45.84;99278.84;4501467;31;34134;-65
2023/06/11 04:37:43;;;;;;;7.28;4.68;;;;;;;25.82;45.83;99280.75;4501009;31;33365;-64
2023/06/11 04:40:12;;;;;;;6.95;5.20;;;;;;;25.83;45.81;99287.88;4501362;31;34779;-64
2023/06/11 04:42:41;;;;;;;8.88;5.10;;;;;;;25.83;45.79;99281.59;4500902;31;34849;-64
2023/06/11 04:45:09;;;;;;;6.40;5.07;;;;;;;25.83;45.84;99296.06;4500985;31;33634;-67
2023/06/11 04:47:38;;;;;;;7.20;4.82;;;;;;;25.83;45.85;99287.06;4501157;31;33025;-63
2023/06/11 04:50:06;;;;;;;7.40;4.95;;;;;;;25.83;45.84;99293.34;4501275;31;33414;-64
2023/06/11 04:52:37;;;;;;;8.07;5.30;;;;;;;25.83;45.83;99287.88;4501163;31;33824;-64
2023/06/11 04:55:05;;;;;;;;;;;;;;;25.84;45.81;99283.25;4501644;31;33905;-63
2023/06/11 04:57:33;;;;;;;6.82;4.30;;;;;;;25.92;45.61;99286.34;4500862;31;33510;-64
2023/06/11 05:00:08;;;;;;;10.68;5.03;;;;;;;25.86;45.72;99289.28;4500969;31;33946;-64
2023/06/11 05:02:43;;;;;;;9.18;5.22;;;;;;;25.83;45.82;99278.84;4501237;31;35017;-64
2023/06/11 05:05:14;;;;;;;7.30;5.28;;;;;;;25.82;45.88;99286.22;4500923;31;34795;-70
2023/06/11 05:07:42;;;;;;;6.82;5.00;;;;;;;25.82;45.85;99274.47;4501238;31;33811;-66
2023/06/11 05:10:10;;;;;;;8.50;4.60;;;;;;;25.83;45.83;99292.50;4500954;31;35267;-64
2023/06/11 05:12:38;;;;;;;9.52;5.25;;;;;;;25.83;45.82;99293.34;4500929;31;33974;-64
2023/06/11 05:15:08;;;;;;;9.07;4.80;;;;;;;25.84;45.82;99296.94;4500676;31;34945;-63
2023/06/11 05:17:36;;;;;;;6.43;4.78;;;;;;;25.82;45.83;99296.34;4500792;31;34617;-65
2023/06/11 05:20:05;;;;;;;6.97;4.70;;;;;;;25.82;45.79;99286.22;4500767;31;33939;-64
2023/06/11 05:22:33;;;;;;;7.65;4.50;;;;;;;25.82;45.81;99288.97;4501102;31;33522;-65
2023/06/11 05:25:00;;;;;;;6.75;4.78;;;;;;;25.81;45.79;99295.50;4500699;31;34257;-64
2023/06/11 05:27:29;;;;;;;5.95;4.50;;;;;;;25.81;45.71;99286.50;4501005;31;33297;-65
2023/06/11 05:29:57;;;;;;;6.78;5.12;;;;;;;25.81;45.73;99289.22;4500893;31;34499;-65
2023/06/11 05:32:25;;;;;;;7.87;4.55;;;;;;;25.81;45.69;99284.59;4500447;31;33748;-65
2023/06/11 05:34:57;;;;;;;6.12;5.00;;;;;;;25.81;45.68;99289.22;4500952;31;34597;-64
2023/06/11 05:37:25;;;;;;;9.80;5.20;;;;;;;25.81;45.65;99289.22;4500776;31;33410;-65
2023/06/11 05:39:53;;;;;;;6.65;4.90;;;;;;;25.80;45.63;99287.56;4500403;31;33934;-64
2023/06/11 05:42:21;;;;;;;6.20;4.82;;;;;;;25.78;45.59;99287.81;4500882;31;33515;-64
2023/06/11 05:44:48;;;;;;;6.82;4.70;;;;;;;25.79;45.56;99294.13;4500610;31;34515;-64
2023/06/11 05:47:17;;;;;;;7.22;4.75;;;;;;;25.80;45.54;99295.78;4500679;31;32974;-67
2023/06/11 05:49:46;;;;;;;8.23;4.97;;;;;;;25.81;45.53;99300.16;4486785;31;34570;-64
2023/06/11 05:52:13;;;;;;;8.35;5.12;;;;;;;25.80;45.51;99299.34;4500630;31;33586;-73
2023/06/11 05:54:41;;;;;;;6.90;4.45;;;;;;;25.79;45.47;99305.88;4486612;31;33941;-72
2023/06/11 05:57:22;;;;;;;8.60;5.22;;;;;;;25.79;45.47;99294.97;4500594;31;33211;-68
2023/06/11 05:59:50;;;;;;;8.55;5.20;;;;;;;25.81;45.48;99297.41;4500646;31;33938;-71
2023/06/11 06:02:18;;;;;;;6.30;4.35;;;;;;;25.79;45.53;99303.16;4500516;31;33745;-70
2023/06/11 06:04:48;;;;;;;6.93;4.90;;;;;;;25.80;45.54;99301.25;4486341;31;34026;-72
2023/06/11 06:07:16;;;;;;;10.10;4.95;;;;;;;25.80;45.53;99310.25;4486547;31;34525;-71
2023/06/11 06:09:43;;;;;;;6.80;4.75;;;;;;;25.81;45.46;99306.44;4500822;31;34288;-72
2023/06/11 06:12:11;;;;;;;6.80;4.85;;;;;;;25.80;45.42;99304.81;4500500;31;34722;-71
2023/06/11 06:14:39;;;;;;;6.10;4.65;;;;;;;25.81;45.38;99313.81;4500480;31;33831;-69
2023/06/11 06:17:07;;;;;;;6.82;4.93;;;;;;;25.80;45.36;99315.72;4500553;31;33364;-68
2023/06/11 06:19:35;;;;;;;7.45;4.70;;;;;;;25.79;45.36;99318.72;4500626;31;34339;-67
2023/06/11 06:22:04;;;;;;;8.48;4.60;;;;;;;25.79;45.36;99318.72;4500706;31;33708;-70
2023/06/11 06:24:32;;;;;;;7.60;5.15;;;;;;;25.79;45.33;99319.56;4500212;31;33845;-68
2023/06/11 06:27:00;;;;;;;7.32;5.25;;;;;;;25.78;45.34;99314.31;4499541;31;34055;-72
2023/06/11 06:29:27;;;;;;;8.95;4.45;;;;;;;25.78;45.35;99314.31;4489176;31;164998;-70
2023/06/11 06:31:55;;;;;;;8.85;5.25;;;;;;;25.78;45.25;99317.06;4507358;31;34058;-69
2023/06/11 06:34:25;;;;;;;11.12;5.25;;;;;;;25.77;45.21;99318.13;4503506;31;33867;-72
2023/06/11 06:36:53;;;;;;;8.05;4.60;;;;;;;25.77;45.23;99323.59;4500347;31;33435;-73
2023/06/11 06:39:21;;;;;;;6.30;4.85;;;;;;;25.77;45.25;99323.59;4500435;31;34380;-71
2023/06/11 06:41:49;;;;;;;7.97;4.87;;;;;;;25.78;45.33;99325.25;4500443;31;33727;-71
2023/06/11 06:44:21;;;;;;;7.03;4.90;;;;;;;25.77;45.32;99329.87;4498995;31;33736;-71
2023/06/11 06:46:53;;;;;;;6.25;5.00;;;;;;;25.76;45.33;99330.16;4500178;31;33516;-63
2023/06/11 06:49:22;;;;;;;8.55;5.12;;;;;;;25.76;45.32;99330.16;4500298;31;33447;-64
2023/06/11 06:51:49;;;;;;;9.10;5.28;;;;;;;25.74;45.24;99330.37;4500012;31;34562;-65
2023/06/11 06:54:17;;;;;;;5.72;4.90;;;;;;;25.73;45.07;99336.09;4500306;31;33732;-64
2023/06/11 06:56:46;;;;;;;7.68;4.95;;;;;;;25.72;45.04;99334.44;4500340;31;34081;-65
2023/06/11 06:59:16;;;;;;;6.18;4.93;;;;;;;25.72;45.11;99329.78;4499804;31;34079;-70
2023/06/11 07:01:43;;;;;;;5.97;4.53;;;;;;;25.71;45.12;99336.34;4485487;31;34001;-64
2023/06/11 07:04:12;;;;;;;6.10;4.87;;;;;;;25.72;45.03;99335.25;4500193;31;34696;-67
2023/06/11 07:06:40;;;;;;;7.55;5.30;;;;;;;25.70;45.19;99335.53;4500038;31;33167;-63
2023/06/11 07:09:08;;;;;;;8.40;5.22;;;;;;;25.73;45.25;99333.34;4500145;31;33632;-64
2023/06/11 07:11:36;;;;;;;8.77;5.18;;;;;;;25.73;45.26;99333.34;4500086;31;34455;-63
2023/06/11 07:14:05;;;;;;;7.95;4.80;;;;;;;25.75;45.29;99339.41;4500294;31;33920;-65
2023/06/11 07:16:33;;;;;;;7.25;5.47;;;;;;;25.75;45.21;99340.22;4500042;31;33211;-63
2023/06/11 07:19:01;;;;;;;9.95;5.28;;;;;;;25.74;45.17;99329.53;4499850;31;33523;-72
2023/06/11 07:21:29;;;;;;;8.02;4.57;;;;;;;25.74;45.12;99335.84;4499943;31;34819;-65
2023/06/11 07:23:58;;;;;;;7.18;5.25;;;;;;;25.75;45.10;99333.94;4485912;31;34425;-63
2023/06/11 07:26:26;;;;;;;9.00;5.07;;;;;;;25.76;45.09;99330.16;4500201;31;33304;-65
2023/06/11 07:28:55;;;;;;;7.82;5.30;;;;;;;25.77;45.14;99337.25;4499889;31;34904;-63
2023/06/11 07:31:22;;;;;;;6.72;5.15;;;;;;;25.78;45.13;99333.44;4499556;31;33890;-64
2023/06/11 07:33:50;;;;;;;8.05;5.03;;;;;;;25.77;45.10;99338.09;4499978;31;33588;-72
2023/06/11 07:36:18;;;;;;;6.65;5.15;;;;;;;25.78;45.01;99338.91;4500055;31;34143;-72
2023/06/11 07:38:46;;;;;;;29.87;6.45;;;;;;;25.78;45.12;99338.91;4499345;31;34737;-69
2023/06/11 07:41:14;;;;;;;11.23;5.25;;;;;;;25.79;45.21;99341.41;4499985;31;34435;-73
2023/06/11 07:43:42;;;;;;;20.58;6.10;;;;;;;25.81;45.27;99346.63;4499553;31;34226;-70
2023/06/11 07:46:10;;;;;;;14.32;5.45;;;;;;;25.84;45.21;99340.66;4499552;31;33334;-70
2023/06/11 07:48:41;;;;;;;15.65;5.35;;;;;;;25.89;45.31;99341.53;4485603;31;33434;-67
2023/06/11 07:51:09;;;;;;;9.52;5.05;;;;;;;25.93;45.35;99341.88;4499516;31;34017;-68
2023/06/11 07:53:38;;;;;;;10.88;5.50;;;;;;;25.95;45.26;99347.88;4499780;31;34234;-68
2023/06/11 07:56:07;;;;;;;13.80;5.12;;;;;;;25.97;45.23;99342.16;4501427;31;34330;-65
2023/06/11 07:58:36;;;;;;;14.85;5.57;;;;;;;26.00;45.15;99347.13;4501257;31;33621;-68
2023/06/11 08:01:03;;;;;;;16.92;5.43;;;;;;;26.03;45.15;99346.63;4501401;31;34526;-73
2023/06/11 08:03:31;;;;;;;10.38;4.85;;;;;;;26.02;45.19;99362.22;4501390;31;34079;-63
2023/06/11 08:05:58;;;;;;;12.07;5.07;;;;;;;26.02;45.19;99354.00;4501244;31;33466;-69
2023/06/11 08:08:26;;;;;;;13.40;5.43;;;;;;;26.03;45.16;99354.84;4501358;31;33764;-72
2023/06/11 08:10:54;;;;;;;11.50;5.15;;;;;;;26.02;45.12;99361.34;4501321;31;34370;-73
2023/06/11 08:13:21;;;;;;;9.43;5.18;;;;;;;26.03;44.98;99358.38;4501145;31;34647;-68
2023/06/11 08:15:49;;;;;;;9.50;4.72;;;;;;;26.04;44.83;99357.31;4501101;31;33451;-67
2023/06/11 08:18:17;;;;;;;7.37;4.60;;;;;;;26.05;44.81;99358.94;4501355;31;34084;-62
2023/06/11 08:20:46;;;;;;;7.80;5.45;;;;;;;26.09;44.52;99360.09;4501181;31;33771;-65
2023/06/11 08:23:14;;;;;;;7.15;4.95;;;;;;;26.09;44.40;99351.91;4501158;31;34738;-65
2023/06/11 08:25:42;;;;;;;6.80;5.25;;;;;;;26.09;44.44;99362.81;4501490;31;33533;-65
2023/06/11 08:28:09;;;;;;;7.45;5.07;;;;;;;26.13;44.44;99360.41;4500955;31;33948;-63
2023/06/11 08:30:38;;;;;;;6.78;4.82;;;;;;;26.14;44.45;99362.88;4501072;31;33952;-71
2023/06/11 08:33:06;;;;;;;7.40;5.72;;;;;;;26.14;44.49;99368.34;4501121;31;34069;-66
2023/06/11 08:35:33;;;;;;;8.85;5.40;;;;;;;26.14;44.60;99364.78;4500961;31;34379;-66
2023/06/11 08:38:01;;;;;;;6.78;5.00;;;;;;;26.12;44.60;99356.84;4501195;31;33927;-64
2023/06/11 08:40:29;;;;;;;7.87;4.43;;;;;;;26.12;44.45;99366.97;4501170;31;34033;-62
2023/06/11 08:42:56;;;;;;;7.32;5.05;;;;;;;26.13;44.38;99361.25;4500909;31;34849;-62
2023/06/11 08:45:24;;;;;;;7.78;5.07;;;;;;;26.15;44.34;99360.97;4501421;31;33496;-66
2023/06/11 08:47:52;;;;;;;9.23;4.82;;;;;;;26.15;44.17;99363.72;4500959;31;33846;-68
2023/06/11 08:50:21;;;;;;;7.90;4.95;;;;;;;26.12;44.14;99365.06;4473999;31;33870;-73
2023/06/11 08:52:50;;;;;;;6.57;5.18;;;;;;;26.14;43.98;99362.88;4501283;31;33982;-61
2023/06/11 08:55:17;;;;;;;8.00;5.62;;;;;;;26.14;44.01;99368.34;4487007;31;33542;-62
2023/06/11 08:57:46;;;;;;;6.30;4.90;;;;;;;26.13;44.07;99369.44;4500771;31;34098;-62
2023/06/11 09:00:14;;;;;;;6.82;4.80;;;;;;;26.14;44.13;99370.28;4501218;31;34145;-62
2023/06/11 09:02:42;;;;;;;8.40;5.60;;;;;;;26.13;44.18;99372.19;4500597;31;33632;-64
2023/06/11 09:05:10;;;;;;;9.00;5.18;;;;;;;26.14;44.20;99360.16;4500321;31;33956;-63
2023/06/11 09:07:39;;;;;;;7.32;5.10;;;;;;;26.14;44.05;99359.34;4469925;32;33805;-68
2023/06/11 09:10:08;;;;;;;6.95;4.82;;;;;;;26.13;43.98;99357.69;4475052;31;34399;-69
2023/06/11 09:12:37;;;;;;;7.70;5.28;;;;;;;26.13;43.97;99363.97;4498423;31;34488;-66
2023/06/11 09:15:05;;;;;;;8.27;5.53;;;;;;;26.15;44.09;99361.81;4472800;31;33414;-63
2023/06/11 09:17:34;;;;;;;8.52;5.62;;;;;;;26.15;44.39;99360.97;4488817;31;34009;-62
2023/06/11 09:20:04;;;;;;;6.25;4.87;;;;;;;26.16;44.62;99363.47;4500158;31;33876;-68
2023/06/11 09:22:34;;;;;;;8.70;5.32;;;;;;;26.16;44.78;99363.47;4498059;31;34223;-71
2023/06/11 09:25:06;;;;;;;6.30;4.80;;;;;;;26.17;44.94;99361.56;4498830;31;34298;-65
2023/06/11 09:27:34;;;;;;;9.55;4.93;;;;;;;26.20;44.74;99366.50;4499526;31;33485;-61
2023/06/11 09:30:08;;;;;;;6.57;4.65;;;;;;;26.20;44.35;99370.06;4499962;31;34617;-69
2023/06/11 09:32:38;;;;;;;6.47;4.78;;;;;;;26.22;44.09;99369.81;4500282;31;33773;-66
2023/06/11 09:35:08;;;;;;;9.77;5.70;;;;;;;26.20;44.16;99374.72;4500392;31;34454;-63
2023/06/11 09:37:40;;;;;;;6.25;4.97;;;;;;;26.20;44.10;99370.06;4500259;31;34847;-65
2023/06/11 09:40:17;;;;;;;6.82;5.10;;;;;;;26.21;44.09;99365.44;4500596;31;34044;-62
2023/06/11 09:42:47;;;;;;;6.20;4.90;;;;;;;26.24;43.98;99372.28;4500736;31;33905;-62
2023/06/11 09:45:19;;;;;;;9.27;4.93;;;;;;;26.23;43.82;99367.91;4486182;31;33370;-63
2023/06/11 09:47:47;;;;;;;5.55;4.40;;;;;;;26.25;43.41;99369.28;4500718;31;33974;-63
2023/06/11 09:50:17;;;;;;;6.85;5.12;;;;;;;26.25;43.25;99373.94;4486411;31;33992;-62
2023/06/11 09:52:45;;;;;;;10.30;5.37;;;;;;;26.22;43.54;99369.81;4500685;31;33481;-64
2023/06/11 09:55:12;;;;;;;5.60;4.40;;;;;;;26.26;43.40;99367.41;4486311;31;33491;-62
2023/06/11 09:57:41;;;;;;;6.97;4.90;;;;;;;26.28;43.29;99367.97;4486200;31;33729;-63
2023/06/11 10:00:10;;;;;;;6.30;4.60;;;;;;;26.26;43.17;99373.72;4500594;31;34897;-62
2023/06/11 10:02:39;;;;;;;5.57;4.35;;;;;;;26.29;43.06;99372.34;4500548;31;33900;-62
2023/06/11 10:05:07;;;;;;;8.15;4.68;;;;;;;26.25;43.22;99369.28;4500507;31;34596;-66
2023/06/11 10:07:56;;;;;;;6.30;4.32;;;;;;;26.27;43.28;99367.16;4479971;31;33947;-64
2023/06/11 10:10:24;;;;;;;8.03;4.90;;;;;;;26.31;43.42;99367.47;4497746;31;33731;-69
2023/06/11 10:12:52;;;;;;;5.87;4.70;;;;;;;26.31;43.53;99362.00;4498448;31;34185;-71
2023/06/11 10:15:23;;;;;;;8.50;4.80;;;;;;;26.29;43.83;99361.41;4479468;32;33224;-72
2023/06/11 10:17:53;;;;;;;7.05;5.07;;;;;;;26.30;43.99;99363.06;4484546;32;34124;-70
2023/06/11 10:20:35;;;;;;;8.95;5.12;;;;;;;26.34;43.97;99364.19;4511523;31;34041;-69
2023/06/11 10:23:06;;;;;;;7.87;4.97;;;;;;;26.36;43.85;99364.78;4516286;31;33457;-71
2023/06/11 10:25:53;;;;;;;6.35;4.55;;;;;;;26.36;43.96;99367.53;4509409;31;33794;-72
2023/06/11 10:28:36;;;;;;;6.78;4.53;;;;;;;26.36;43.98;99370.25;4474352;31;34046;-72
2023/06/11 10:31:04;;;;;;;6.53;4.65;;;;;;;26.38;43.93;99354.41;4500427;31;33963;-70
2023/06/11 10:33:50;;;;;;;7.03;4.32;;;;;;;26.35;44.06;99363.97;4500171;31;34783;-71
2023/06/11 10:36:22;;;;;;;7.15;5.00;;;;;;;26.37;44.07;99361.78;4500318;31;34086;-67
2023/06/11 10:39:03;;;;;;;6.82;4.55;;;;;;;26.38;44.03;99352.50;4500002;31;33813;-71
2023/06/11 10:41:31;;;;;;;6.37;4.80;;;;;;;26.41;44.15;99362.94;4472906;31;33135;-70
2023/06/11 10:43:58;;;;;;;7.22;4.50;;;;;;;26.45;43.75;99366.03;4500034;31;33682;-63
2023/06/11 10:46:26;;;;;;;7.97;4.65;;;;;;;26.46;43.39;99353.97;4502909;31;33957;-63
2023/06/11 10:48:56;;;;;;;7.62;5.15;;;;;;;26.46;43.10;99353.97;4469898;32;33817;-71
2023/06/11 10:51:24;;;;;;;6.85;4.47;;;;;;;26.45;43.09;99352.34;4480767;31;34129;-68
2023/06/11 10:53:56;;;;;;;6.95;4.68;;;;;;;26.47;43.12;99352.91;4477598;31;33720;-65
2023/06/11 10:56:25;;;;;;;6.37;4.72;;;;;;;26.45;43.16;99355.91;4472346;31;33558;-61
2023/06/11 10:58:55;;;;;;;6.03;4.35;;;;;;;26.47;43.18;99355.63;4465520;31;33377;-64
2023/06/11 11:01:23;;;;;;;6.28;4.70;;;;;;;26.48;43.16;99360.00;4465696;31;33467;-61
2023/06/11 11:03:51;;;;;;;7.72;4.78;;;;;;;26.45;43.29;99352.34;4469611;31;33989;-64
2023/06/11 11:06:26;;;;;;;5.87;4.28;;;;;;;26.47;43.26;99352.91;4469425;32;33767;-62
2023/06/11 11:08:57;;;;;;;6.53;4.70;;;;;;;26.47;43.48;99352.91;4483769;31;33817;-64
2023/06/11 11:11:26;;;;;;;5.90;4.35;;;;;;;26.50;43.52;99357.03;4483978;32;34766;-63
2023/06/11 11:13:54;;;;;;;6.05;4.40;;;;;;;26.49;43.80;99356.22;4469329;31;33899;-72
2023/06/11 11:16:22;;;;;;;8.60;4.72;;;;;;;26.48;43.99;99356.44;4486254;31;33454;-63
2023/06/11 11:18:50;;;;;;;5.60;4.25;;;;;;;26.48;44.07;99351.81;4487703;31;33553;-67
2023/06/11 11:21:18;;;;;;;6.25;4.97;;;;;;;26.48;44.04;99348.25;4515840;31;34171;-69
2023/06/11 11:23:47;;;;;;;6.82;4.78;;;;;;;26.51;44.03;99345.00;4499088;31;34542;-67
2023/06/11 11:26:17;;;;;;;8.05;4.20;;;;;;;26.53;44.36;99348.28;4469882;31;34290;-69
2023/06/11 11:28:45;;;;;;;7.30;4.60;;;;;;;26.55;44.22;99346.97;4474530;32;33582;-66
2023/06/11 11:31:14;;;;;;;7.37;4.60;;;;;;;26.58;43.97;99349.19;4483028;32;34485;-72
2023/06/11 11:33:42;;;;;;;6.73;4.47;;;;;;;26.58;43.97;99343.72;4456355;32;33891;-72
2023/06/11 11:36:14;;;;;;;6.87;4.62;;;;;;;26.57;43.97;99342.03;4469430;32;33350;-61
2023/06/11 11:38:42;;;;;;;6.95;4.40;;;;;;;26.59;43.97;99341.81;4495647;31;34943;-71
2023/06/11 11:41:09;;;;;;;5.40;4.35;;;;;;;26.60;43.74;99343.47;4504384;31;34931;-62